Brooktondale, New York
Current Conditions -  °F | °C
As of 10:56 AM on Saturday 22 Nov 2014 (Local Time) from KITH Reporting Station
Overcast Overcast  
Wind Chill: 25°   Ceiling: 5000
Heat Index: 33°   Visibility: 10mi
Dew Point: 10°   Wind: 9mph
Humidity: 39%   Direction: 150°SSE
Pressure: 30.2"   Gusts: NA
Location:  42.38°N, 76.39°W
Report Text: KITH 221556Z 15008KT 10SM OVC050 01/M12 A3020 RMK AO2 T00051122 PRESFR SLP243
Loading
Personal Weather Stations






























Interactive Weather Map New forecast layout! Learn more

10-Day Weather Forecast

Advertisements
Track Severe Weather on mobile